Time;durP1;ratioP1;P1;durP2;ratioP2;P2;SDS_P1;SDS_P2;PMS_P1;PMS_P2;Temp;Humidity;BMP_temperature;BMP_pressure;BME280_temperature;BME280_humidity;BME280_pressure;Samples;Min_cycle;Max_cycle;Signal;HPM_P1;HPM_P2
2021/12/20 00:00:18;;;;;;;12.43;2.33;;;7.00;99.90;;;;;;5073437;28;20082;-75
2021/12/20 00:02:48;;;;;;;12.70;2.17;;;7.10;99.90;;;;;;5073545;28;20025;-77
2021/12/20 00:05:15;;;;;;;11.52;1.80;;;7.10;99.90;;;;;;5073164;28;20063;-77
2021/12/20 00:07:41;;;;;;;12.32;1.65;;;7.10;99.90;;;;;;5073028;28;20028;-77
2021/12/20 00:10:07;;;;;;;10.73;1.90;;;7.10;99.90;;;;;;5072510;28;20424;-76
2021/12/20 00:12:34;;;;;;;8.73;1.77;;;7.00;99.90;;;;;;5073275;28;20074;-77
2021/12/20 00:14:59;;;;;;;15.10;1.88;;;7.00;99.90;;;;;;5073320;28;20029;-77
2021/12/20 00:17:25;;;;;;;14.73;1.77;;;7.00;99.90;;;;;;5072493;28;20021;-77
2021/12/20 00:19:51;;;;;;;12.55;2.35;;;7.10;99.90;;;;;;5073388;28;20033;-77
2021/12/20 00:22:16;;;;;;;20.05;2.38;;;7.10;99.90;;;;;;5072826;28;20036;-76
2021/12/20 00:24:42;;;;;;;18.80;2.22;;;7.10;99.90;;;;;;5072643;28;20024;-77
2021/12/20 00:27:10;;;;;;;14.57;3.47;;;7.20;99.90;;;;;;5072832;28;20106;-76
2021/12/20 00:29:36;;;;;;;9.85;2.22;;;7.20;99.90;;;;;;5072570;28;20024;-76
2021/12/20 00:32:02;;;;;;;19.95;2.90;;;7.10;99.90;;;;;;5072378;28;20029;-77
2021/12/20 00:34:27;;;;;;;17.17;2.88;;;7.10;99.90;;;;;;5072827;28;20115;-77
2021/12/20 00:37:02;;;;;;;17.90;2.47;;;7.10;99.90;;;;;;5073499;28;20025;-76
2021/12/20 00:42:12;;;;;;;20.00;2.78;;;7.00;99.90;;;;;;5072813;28;20051;-77
2021/12/20 00:44:37;;;;;;;12.88;2.08;;;7.00;99.90;;;;;;5072681;28;20028;-77
2021/12/20 00:47:03;;;;;;;22.27;2.13;;;7.00;99.90;;;;;;5072454;28;20497;-77
2021/12/20 00:49:29;;;;;;;15.30;2.78;;;7.00;99.90;;;;;;5073267;28;20032;-77
2021/12/20 00:51:55;;;;;;;15.30;1.98;;;7.00;99.90;;;;;;5072396;28;20392;-75
2021/12/20 00:54:20;;;;;;;20.85;3.10;;;6.90;99.90;;;;;;5072119;28;20476;-75
2021/12/20 00:56:46;;;;;;;26.92;3.03;;;6.90;99.90;;;;;;5072717;28;20021;-75
2021/12/20 00:59:11;;;;;;;15.30;2.50;;;7.00;99.90;;;;;;5071745;28;20465;-75
2021/12/20 01:01:37;;;;;;;27.55;3.42;;;7.00;99.90;;;;;;5072651;28;20039;-75
2021/12/20 01:04:03;;;;;;;20.42;2.70;;;7.00;99.90;;;;;;5071946;28;20020;-75
2021/12/20 01:06:29;;;;;;;19.80;3.70;;;6.90;99.90;;;;;;5071587;28;20473;-76
2021/12/20 01:08:54;;;;;;;20.85;2.35;;;6.90;99.90;;;;;;5072609;28;20354;-77
2021/12/20 01:11:24;;;;;;;20.10;3.50;;;6.90;99.90;;;;;;5072755;28;20039;-76
2021/12/20 01:13:50;;;;;;;25.52;2.78;;;7.00;99.90;;;;;;5072272;28;20115;-76
2021/12/20 01:16:15;;;;;;;17.65;2.55;;;6.90;99.90;;;;;;5072545;28;20504;-77
2021/12/20 01:18:42;;;;;;;22.00;2.15;;;6.90;99.90;;;;;;5072649;28;20028;-77
2021/12/20 01:21:08;;;;;;;16.25;2.50;;;6.90;99.90;;;;;;5071534;28;20020;-77
2021/12/20 01:23:36;;;;;;;16.58;2.95;;;6.90;99.90;;;;;;5072917;28;20030;-77
2021/12/20 01:26:02;;;;;;;23.98;2.53;;;6.80;99.90;;;;;;5072491;28;20021;-76
2021/12/20 01:28:27;;;;;;;11.70;2.38;;;6.80;99.90;;;;;;5072342;28;20021;-76
2021/12/20 01:30:53;;;;;;;15.75;3.10;;;6.80;99.90;;;;;;5072900;28;20047;-76
2021/12/20 01:33:18;;;;;;;12.85;2.47;;;6.80;99.90;;;;;;5072501;28;20376;-76
2021/12/20 01:35:44;;;;;;;23.20;2.55;;;6.70;99.90;;;;;;5071509;28;20457;-77
2021/12/20 01:38:10;;;;;;;16.88;2.83;;;6.70;99.90;;;;;;5072104;28;20162;-77
2021/12/20 01:40:37;;;;;;;22.98;4.15;;;6.80;99.90;;;;;;5072186;28;20021;-76
2021/12/20 01:43:04;;;;;;;11.40;2.35;;;6.80;99.90;;;;;;5071694;28;20100;-75
2021/12/20 01:45:30;;;;;;;18.08;2.45;;;6.70;99.90;;;;;;5072308;28;20036;-75
2021/12/20 01:48:08;;;;;;;20.73;3.45;;;6.80;99.90;;;;;;5071794;28;20041;-77
2021/12/20 01:53:05;;;;;;;16.15;2.22;;;6.80;99.90;;;;;;5071673;28;20036;-76
2021/12/20 01:55:31;;;;;;;9.40;1.95;;;6.90;99.90;;;;;;5071387;28;20024;-76
2021/12/20 01:57:57;;;;;;;20.08;2.90;;;6.80;99.90;;;;;;5072237;28;20170;-76
2021/12/20 02:00:28;;;;;;;16.65;3.13;;;6.80;99.90;;;;;;5073415;28;20614;-75
2021/12/20 02:03:01;;;;;;;22.13;2.35;;;6.80;99.90;;;;;;5076322;28;20082;-76
2021/12/20 02:08:18;;;;;;;23.02;2.10;;;6.90;99.90;;;;;;5076838;28;20099;-76
2021/12/20 02:10:44;;;;;;;26.55;3.42;;;6.80;99.90;;;;;;5075678;28;20074;-76
2021/12/20 02:13:12;;;;;;;23.38;3.20;;;6.80;99.90;;;;;;5075214;28;20032;-76
2021/12/20 02:15:38;;;;;;;12.63;2.17;;;6.80;99.90;;;;;;5075562;28;20104;-77
2021/12/20 02:18:04;;;;;;;15.20;2.70;;;6.80;99.90;;;;;;5074586;28;20444;-76
2021/12/20 02:20:32;;;;;;;23.88;2.85;;;6.80;99.90;;;;;;5075523;28;20039;-76
2021/12/20 02:22:59;;;;;;;16.92;2.72;;;6.80;99.90;;;;;;5075576;28;20036;-77
2021/12/20 02:25:25;;;;;;;17.98;2.25;;;6.70;99.90;;;;;;5074955;28;20034;-75
2021/12/20 02:27:52;;;;;;;20.60;2.13;;;6.70;99.90;;;;;;5075852;28;20021;-76
2021/12/20 02:38:31;;;;;;;26.58;3.63;;;6.60;99.90;;;;;;5074916;28;20039;-76
2021/12/20 02:41:05;;;;;;;23.58;2.40;;;6.70;99.90;;;;;;5075228;28;20024;-77
2021/12/20 02:43:35;;;;;;;17.15;3.13;;;6.70;99.90;;;;;;5075325;28;20048;-76
2021/12/20 02:46:04;;;;;;;15.00;2.58;;;6.70;99.90;;;;;;5075017;28;20027;-76
2021/12/20 02:48:29;;;;;;;17.75;2.55;;;6.70;99.90;;;;;;5075599;28;20044;-76
2021/12/20 02:50:56;;;;;;;18.35;2.60;;;6.70;99.90;;;;;;5075579;28;20021;-75
2021/12/20 02:53:22;;;;;;;18.45;2.67;;;6.60;99.90;;;;;;5074583;28;20443;-75
2021/12/20 02:55:47;;;;;;;14.73;2.38;;;6.60;99.90;;;;;;5074998;28;20453;-76
2021/12/20 02:58:13;;;;;;;21.27;3.85;;;6.60;99.90;;;;;;5079423;28;20037;-76
2021/12/20 03:00:39;;;;;;;17.65;2.63;;;6.50;99.90;;;;;;5074361;28;20020;-76
2021/12/20 03:03:06;;;;;;;16.08;2.67;;;6.60;99.90;;;;;;5073910;28;20025;-77
2021/12/20 03:05:32;;;;;;;22.75;2.55;;;6.60;99.90;;;;;;5075811;28;20039;-76
2021/12/20 03:07:57;;;;;;;18.23;2.72;;;6.60;99.90;;;;;;5074872;28;20029;-76
2021/12/20 03:10:25;;;;;;;14.95;2.90;;;6.70;99.90;;;;;;5074661;28;20477;-76
2021/12/20 03:12:51;;;;;;;17.00;2.83;;;6.60;99.90;;;;;;5073213;28;20489;-76
2021/12/20 03:15:23;;;;;;;15.00;2.22;;;6.50;99.90;;;;;;5074665;28;20039;-76
2021/12/20 03:17:52;;;;;;;20.60;3.47;;;6.50;99.90;;;;;;5074779;28;20132;-76
2021/12/20 03:20:20;;;;;;;13.20;2.50;;;6.50;99.90;;;;;;5074228;28;20032;-76
2021/12/20 03:22:46;;;;;;;17.92;2.35;;;6.40;99.90;;;;;;5074628;28;20285;-75
2021/12/20 03:25:11;;;;;;;13.90;2.33;;;6.40;99.90;;;;;;5074300;28;20417;-75
2021/12/20 03:27:37;;;;;;;23.83;2.95;;;6.40;99.90;;;;;;5074939;28;20417;-76
2021/12/20 03:30:06;;;;;;;19.63;2.78;;;6.40;99.90;;;;;;5074754;28;20025;-75
2021/12/20 03:32:31;;;;;;;19.60;2.80;;;6.50;99.90;;;;;;5075207;28;20032;-76
2021/12/20 03:34:57;;;;;;;24.85;4.65;;;6.50;99.90;;;;;;5073690;28;20028;-77
2021/12/20 03:37:23;;;;;;;23.08;3.38;;;6.50;99.90;;;;;;5074259;28;20032;-77
2021/12/20 03:39:48;;;;;;;12.50;1.95;;;6.40;99.90;;;;;;5074687;28;20491;-76
2021/12/20 03:42:14;;;;;;;16.13;3.35;;;6.50;99.90;;;;;;5073269;28;20024;-76
2021/12/20 03:44:44;;;;;;;16.92;2.22;;;6.40;99.90;;;;;;5074154;28;20111;-77
2021/12/20 03:47:11;;;;;;;21.13;2.53;;;6.40;99.90;;;;;;5073477;28;20048;-76
2021/12/20 03:49:36;;;;;;;11.77;2.65;;;6.40;99.90;;;;;;5073328;28;20241;-76
2021/12/20 03:52:04;;;;;;;28.42;3.53;;;6.40;99.90;;;;;;5073978;28;20586;-76
2021/12/20 03:54:30;;;;;;;15.57;2.60;;;6.40;99.90;;;;;;5073772;28;20033;-76
2021/12/20 03:56:56;;;;;;;16.92;3.13;;;6.40;99.90;;;;;;5073198;28;20497;-75
2021/12/20 03:59:21;;;;;;;20.92;3.58;;;6.50;99.90;;;;;;5074284;28;20103;-76
2021/12/20 04:01:47;;;;;;;18.77;2.95;;;6.40;99.90;;;;;;5073518;28;20481;-75
2021/12/20 04:04:12;;;;;;;22.45;4.15;;;6.40;99.90;;;;;;5072317;28;20029;-76
2021/12/20 04:06:38;;;;;;;16.60;2.58;;;6.40;99.90;;;;;;5073952;28;20362;-76
2021/12/20 04:09:05;;;;;;;20.25;2.30;;;6.40;99.90;;;;;;5073201;28;20028;-77
2021/12/20 04:11:31;;;;;;;16.10;2.50;;;6.40;99.90;;;;;;5073988;28;20029;-76
2021/12/20 04:13:57;;;;;;;15.52;3.60;;;6.40;99.90;;;;;;5074232;28;20396;-76
2021/12/20 04:16:23;;;;;;;17.73;2.50;;;6.40;99.90;;;;;;5072597;28;20530;-75
2021/12/20 04:18:48;;;;;;;22.58;3.78;;;6.40;99.90;;;;;;5074187;28;20028;-76
2021/12/20 04:21:14;;;;;;;27.13;4.00;;;6.40;99.90;;;;;;5073119;28;20116;-75
2021/12/20 04:23:40;;;;;;;8.32;1.98;;;6.50;99.90;;;;;;5072425;28;20050;-77
2021/12/20 04:26:05;;;;;;;12.65;2.88;;;6.40;99.90;;;;;;5073914;28;20021;-76
2021/12/20 04:28:31;;;;;;;20.95;4.82;;;6.40;99.90;;;;;;5073817;28;20031;-76
2021/12/20 04:30:56;;;;;;;12.15;2.40;;;6.40;99.90;;;;;;5072949;28;20032;-76
2021/12/20 04:33:22;;;;;;;16.02;2.65;;;6.50;99.90;;;;;;5073155;28;20614;-77
2021/12/20 04:35:48;;;;;;;22.30;2.33;;;6.40;99.90;;;;;;5073475;28;20468;-75
2021/12/20 04:38:14;;;;;;;15.75;2.47;;;6.50;99.90;;;;;;5071925;28;20406;-75
2021/12/20 04:40:39;;;;;;;17.75;2.30;;;6.50;99.90;;;;;;5073268;28;20032;-75
2021/12/20 04:43:05;;;;;;;12.40;1.80;;;6.50;99.90;;;;;;5072879;28;20400;-76
2021/12/20 04:45:31;;;;;;;18.38;3.05;;;6.60;99.90;;;;;;5072075;28;20020;-75
2021/12/20 04:47:57;;;;;;;24.63;3.40;;;6.60;99.90;;;;;;5072666;28;20132;-76
2021/12/20 04:50:24;;;;;;;16.60;2.72;;;6.70;99.90;;;;;;5072472;28;20448;-75
2021/12/20 04:52:51;;;;;;;20.52;2.35;;;6.70;99.90;;;;;;5072519;28;20028;-75
2021/12/20 04:55:17;;;;;;;15.55;3.13;;;6.70;99.90;;;;;;5073195;28;20046;-75
2021/12/20 04:57:44;;;;;;;18.52;2.47;;;6.70;99.90;;;;;;5072736;28;20031;-74
2021/12/20 05:00:14;;;;;;;16.02;3.45;;;6.70;99.90;;;;;;5072072;28;20032;-76
2021/12/20 05:02:39;;;;;;;14.80;2.37;;;6.70;99.90;;;;;;5072653;28;20021;-76
2021/12/20 05:05:06;;;;;;;16.98;2.30;;;6.70;99.90;;;;;;5072138;28;20421;-74
2021/12/20 05:07:32;;;;;;;18.35;2.83;;;6.60;99.90;;;;;;5072390;28;20056;-75
2021/12/20 05:10:01;;;;;;;15.73;2.03;;;6.60;99.90;;;;;;5073028;28;20048;-75
2021/12/20 05:12:26;;;;;;;14.52;2.50;;;6.60;99.90;;;;;;5071746;28;20078;-75
2021/12/20 05:14:52;;;;;;;21.55;2.47;;;6.60;99.90;;;;;;5072540;28;20067;-75
2021/12/20 05:17:18;;;;;;;13.15;2.47;;;6.60;99.90;;;;;;5072357;28;20150;-74
2021/12/20 05:19:43;;;;;;;13.95;2.13;;;6.60;99.90;;;;;;5071612;28;20025;-75
2021/12/20 05:22:10;;;;;;;13.60;2.65;;;6.50;99.90;;;;;;5072291;28;20024;-76
2021/12/20 05:24:37;;;;;;;15.65;2.92;;;6.50;99.90;;;;;;5072699;28;20099;-76
2021/12/20 05:27:03;;;;;;;20.33;3.35;;;6.50;99.90;;;;;;5071412;28;20076;-75
2021/12/20 05:29:29;;;;;;;25.48;3.47;;;6.50;99.90;;;;;;5072405;28;20063;-74
2021/12/20 05:31:55;;;;;;;12.70;2.55;;;6.50;99.90;;;;;;5072789;28;20024;-76
2021/12/20 05:34:21;;;;;;;19.00;2.60;;;6.50;99.90;;;;;;5071000;28;20036;-74
2021/12/20 05:36:46;;;;;;;17.08;3.08;;;6.50;99.90;;;;;;5077353;28;20024;-74
2021/12/20 05:39:12;;;;;;;15.27;3.05;;;6.50;99.90;;;;;;5076759;28;20039;-75
2021/12/20 05:41:37;;;;;;;12.57;2.95;;;6.50;99.90;;;;;;5075854;28;20025;-75
2021/12/20 05:44:03;;;;;;;17.25;2.70;;;6.40;99.90;;;;;;5076755;28;20032;-76
2021/12/20 05:46:29;;;;;;;13.98;2.33;;;6.40;99.90;;;;;;5076674;28;20141;-74
2021/12/20 05:48:55;;;;;;;14.63;2.95;;;6.40;99.90;;;;;;5056029;28;20052;-75
2021/12/20 05:51:20;;;;;;;28.55;3.53;;;6.40;99.90;;;;;;5056550;28;20063;-74
2021/12/20 05:53:46;;;;;;;17.70;2.88;;;6.40;99.90;;;;;;5056511;28;20033;-75
2021/12/20 05:56:12;;;;;;;16.92;2.63;;;6.40;99.90;;;;;;5054914;28;20354;-75
2021/12/20 05:58:38;;;;;;;20.88;3.45;;;6.50;99.90;;;;;;5055993;28;20033;-76
2021/12/20 06:01:03;;;;;;;26.40;3.10;;;6.50;99.90;;;;;;5055740;28;20082;-75
2021/12/20 06:03:29;;;;;;;26.13;3.85;;;6.40;99.90;;;;;;5054904;28;20048;-75
2021/12/20 06:05:55;;;;;;;10.82;2.45;;;6.40;99.90;;;;;;5056049;28;20458;-75
2021/12/20 06:08:20;;;;;;;19.98;3.70;;;6.40;99.90;;;;;;5055636;28;20087;-75
2021/12/20 06:10:46;;;;;;;19.45;2.83;;;6.40;99.90;;;;;;5055053;28;20036;-75
2021/12/20 06:13:12;;;;;;;17.48;3.08;;;6.40;99.90;;;;;;5055489;28;20025;-75
2021/12/20 06:15:37;;;;;;;22.42;2.70;;;6.40;99.90;;;;;;5055213;28;20052;-76
2021/12/20 06:18:03;;;;;;;20.30;3.47;;;6.40;99.90;;;;;;5055382;28;20021;-74
2021/12/20 06:20:28;;;;;;;14.77;2.78;;;6.40;99.90;;;;;;5055767;28;20376;-75
2021/12/20 06:22:54;;;;;;;23.10;2.85;;;6.40;99.90;;;;;;5055832;28;20021;-76
2021/12/20 06:25:20;;;;;;;15.43;2.78;;;6.30;99.90;;;;;;5055109;28;20033;-75
2021/12/20 06:27:49;;;;;;;17.10;2.83;;;6.30;99.90;;;;;;5055647;28;20380;-75
2021/12/20 06:30:15;;;;;;;16.33;3.08;;;6.30;99.90;;;;;;5054792;28;20033;-75
2021/12/20 06:32:43;;;;;;;19.77;3.40;;;6.30;99.90;;;;;;5055490;28;20025;-76
2021/12/20 06:35:09;;;;;;;14.02;2.80;;;6.30;99.90;;;;;;5054757;28;20033;-76
2021/12/20 06:37:35;;;;;;;15.60;3.65;;;6.30;99.90;;;;;;5054974;28;20067;-76
2021/12/20 06:40:02;;;;;;;15.40;2.70;;;6.30;99.90;;;;;;5055910;28;20438;-75
2021/12/20 06:42:37;;;;;;;29.30;4.10;;;6.30;99.90;;;;;;5059926;28;20032;-75
2021/12/20 06:45:05;;;;;;;16.00;3.50;;;6.30;99.90;;;;;;5054916;28;20025;-75
2021/12/20 06:47:33;;;;;;;19.65;4.13;;;6.30;99.90;;;;;;5062477;28;20127;-76
2021/12/20 06:49:59;;;;;;;10.77;2.33;;;6.20;99.90;;;;;;5074409;28;20507;-77
2021/12/20 06:52:25;;;;;;;17.65;2.80;;;6.30;99.90;;;;;;5076639;28;20020;-75
2021/12/20 06:54:52;;;;;;;19.10;3.00;;;6.20;99.90;;;;;;5073966;28;20036;-75
2021/12/20 06:57:20;;;;;;;18.42;2.85;;;6.20;99.90;;;;;;5074347;28;20484;-76
2021/12/20 06:59:46;;;;;;;21.00;3.10;;;6.20;99.90;;;;;;5073641;28;20448;-77
2021/12/20 07:02:11;;;;;;;16.85;4.10;;;6.30;99.90;;;;;;5074114;28;20016;-75
2021/12/20 07:04:37;;;;;;;13.90;2.78;;;6.30;99.90;;;;;;5073727;28;20469;-74
2021/12/20 07:07:03;;;;;;;21.65;2.40;;;6.20;99.90;;;;;;5073560;28;20028;-76
2021/12/20 07:09:28;;;;;;;18.08;2.33;;;6.20;99.90;;;;;;5074394;28;20031;-75
2021/12/20 07:11:54;;;;;;;13.50;2.25;;;6.30;99.90;;;;;;5073973;28;20419;-75
2021/12/20 07:14:20;;;;;;;12.73;2.72;;;6.40;99.90;;;;;;5075926;28;20131;-75
2021/12/20 07:16:45;;;;;;;9.32;1.80;;;6.40;99.90;;;;;;5078166;28;20048;-76
2021/12/20 07:19:11;;;;;;;13.45;1.75;;;6.40;99.90;;;;;;5078409;28;20028;-75
2021/12/20 07:21:36;;;;;;;10.00;1.65;;;6.40;99.90;;;;;;5093597;28;20486;-76
2021/12/20 07:24:02;;;;;;;9.68;1.63;;;6.30;99.90;;;;;;5076603;28;20535;-75
2021/12/20 07:26:29;;;;;;;14.23;1.50;;;6.30;99.90;;;;;;5072976;28;20452;-75
2021/12/20 07:28:55;;;;;;;12.38;1.58;;;6.30;99.90;;;;;;5075803;28;20050;-75
2021/12/20 07:31:21;;;;;;;9.82;1.67;;;6.30;99.90;;;;;;5072489;28;20044;-75
2021/12/20 07:33:48;;;;;;;6.22;1.75;;;6.30;99.90;;;;;;5072075;28;20044;-76
2021/12/20 07:36:15;;;;;;;7.38;1.55;;;6.30;99.90;;;;;;5075800;28;20439;-76
2021/12/20 07:38:41;;;;;;;9.98;1.60;;;6.20;99.90;;;;;;5089580;28;20028;-75
2021/12/20 07:41:16;;;;;;;11.85;1.90;;;6.20;99.90;;;;;;5092380;28;20031;-75
2021/12/20 07:43:49;;;;;;;8.50;1.55;;;6.20;99.90;;;;;;5083863;28;20037;-76
2021/12/20 07:46:19;;;;;;;12.15;1.90;;;6.20;99.90;;;;;;5088785;28;20044;-77
2021/12/20 07:48:44;;;;;;;16.88;1.48;;;6.20;99.90;;;;;;5085798;28;20040;-74
2021/12/20 07:51:10;;;;;;;13.07;1.55;;;6.20;99.90;;;;;;5083366;28;20398;-76
2021/12/20 07:53:36;;;;;;;6.20;1.27;;;6.40;99.90;;;;;;5078077;28;20036;-75
2021/12/20 07:56:02;;;;;;;11.65;1.90;;;6.30;99.90;;;;;;5076299;28;20073;-75
2021/12/20 07:58:28;;;;;;;7.00;1.48;;;6.30;99.90;;;;;;5094074;28;20488;-75
2021/12/20 08:00:53;;;;;;;9.70;1.52;;;6.30;99.90;;;;;;5084761;28;20111;-74
2021/12/20 08:03:19;;;;;;;8.02;1.38;;;6.30;99.90;;;;;;5087913;28;20123;-76
2021/12/20 08:05:45;;;;;;;7.43;1.50;;;6.30;99.90;;;;;;5088633;28;20032;-74
2021/12/20 08:08:13;;;;;;;6.40;1.35;;;6.40;99.90;;;;;;5092074;28;20364;-76
2021/12/20 08:10:39;;;;;;;8.38;1.55;;;6.30;99.90;;;;;;5090846;28;20089;-75
2021/12/20 08:13:05;;;;;;;6.72;1.60;;;6.30;99.90;;;;;;5088939;28;20027;-75
2021/12/20 08:15:31;;;;;;;6.90;1.40;;;6.50;99.90;;;;;;5095369;28;20383;-75
2021/12/20 08:17:57;;;;;;;12.73;1.80;;;6.40;99.90;;;;;;5090936;28;20107;-74
2021/12/20 08:20:24;;;;;;;12.80;1.75;;;6.50;99.90;;;;;;5088694;28;20466;-75
2021/12/20 08:22:50;;;;;;;13.05;1.30;;;6.50;99.90;;;;;;5091760;28;20047;-77
2021/12/20 08:25:18;;;;;;;8.48;1.60;;;6.50;99.90;;;;;;5093281;28;20023;-76
2021/12/20 08:27:44;;;;;;;7.43;1.65;;;6.50;99.90;;;;;;5094074;28;20031;-76
2021/12/20 08:30:10;;;;;;;10.20;1.25;;;6.50;99.90;;;;;;5093004;28;20032;-76
2021/12/20 08:32:36;;;;;;;10.57;1.48;;;6.50;99.90;;;;;;5094655;28;20477;-74
2021/12/20 08:35:04;;;;;;;9.98;1.35;;;6.50;99.90;;;;;;5094798;28;20032;-76
2021/12/20 08:37:29;;;;;;;13.65;1.85;;;6.50;99.90;;;;;;5093575;28;20028;-75
2021/12/20 08:39:55;;;;;;;5.55;1.55;;;6.50;99.90;;;;;;5086982;28;20104;-75
2021/12/20 08:42:21;;;;;;;9.70;1.92;;;6.50;99.90;;;;;;5073138;28;20534;-76
2021/12/20 08:44:48;;;;;;;16.23;1.95;;;6.50;99.90;;;;;;5089584;28;20020;-77
2021/12/20 08:47:15;;;;;;;11.20;1.98;;;6.50;99.90;;;;;;5088184;28;20044;-77
2021/12/20 08:49:44;;;;;;;9.07;1.70;;;6.50;99.90;;;;;;5079071;28;20028;-75
2021/12/20 08:52:13;;;;;;;9.48;2.08;;;6.50;99.90;;;;;;5080832;28;20036;-75
2021/12/20 08:54:40;;;;;;;13.25;2.03;;;6.50;99.90;;;;;;5081363;28;20033;-76
2021/12/20 08:57:07;;;;;;;11.13;2.13;;;6.50;99.90;;;;;;5087676;28;20102;-76
2021/12/20 08:59:33;;;;;;;15.70;2.88;;;6.50;99.90;;;;;;5083428;28;20142;-76
2021/12/20 09:01:59;;;;;;;12.90;1.90;;;6.50;99.90;;;;;;5088992;28;20519;-75
2021/12/20 09:04:25;;;;;;;7.35;1.50;;;6.60;99.90;;;;;;5079007;28;20047;-76
2021/12/20 09:06:51;;;;;;;8.15;1.83;;;6.60;99.90;;;;;;5073267;28;20468;-75
2021/12/20 09:09:17;;;;;;;7.45;1.67;;;6.60;99.90;;;;;;5076223;28;20377;-76
2021/12/20 09:11:44;;;;;;;11.05;3.05;;;6.60;99.90;;;;;;5075730;28;20039;-76
2021/12/20 09:14:11;;;;;;;6.70;1.70;;;6.60;99.90;;;;;;5073791;28;20495;-77
2021/12/20 09:16:36;;;;;;;10.02;2.20;;;6.60;99.90;;;;;;5079110;28;20439;-75
2021/12/20 09:19:03;;;;;;;9.40;2.08;;;6.70;99.90;;;;;;5077497;28;20112;-75
2021/12/20 09:21:29;;;;;;;10.85;1.40;;;6.60;99.90;;;;;;5082789;28;20061;-77
2021/12/20 09:23:56;;;;;;;13.45;2.22;;;6.70;99.90;;;;;;5073154;28;20078;-77
2021/12/20 09:26:22;;;;;;;9.75;2.20;;;6.80;99.90;;;;;;5082527;28;20043;-75
2021/12/20 09:28:48;;;;;;;12.05;2.13;;;6.80;99.90;;;;;;5078805;28;20036;-74
2021/12/20 09:31:13;;;;;;;10.68;2.45;;;6.80;99.90;;;;;;5078733;28;20503;-75
2021/12/20 09:33:39;;;;;;;9.90;2.00;;;6.80;99.90;;;;;;5077815;28;20092;-78
2021/12/20 09:36:06;;;;;;;8.07;2.28;;;6.80;99.90;;;;;;5093797;28;20059;-75
2021/12/20 09:38:32;;;;;;;8.52;2.10;;;6.90;99.90;;;;;;5101115;28;20111;-76
2021/12/20 09:43:36;;;;;;;11.52;2.17;;;7.00;99.90;;;;;;5107000;28;20024;-76
2021/12/20 09:46:03;;;;;;;10.07;2.22;;;7.00;99.90;;;;;;5099799;28;20019;-77
2021/12/20 09:48:28;;;;;;;9.32;2.15;;;7.00;99.90;;;;;;5089805;28;20066;-76
2021/12/20 09:50:55;;;;;;;14.05;2.60;;;7.00;99.90;;;;;;5084263;28;20020;-76
2021/12/20 09:53:21;;;;;;;16.58;3.45;;;7.00;99.90;;;;;;5079215;28;20158;-78
2021/12/20 09:55:49;;;;;;;13.75;2.30;;;7.10;99.90;;;;;;5088088;28;20021;-77
2021/12/20 09:58:15;;;;;;;15.35;2.33;;;7.10;99.90;;;;;;5075194;28;20028;-77
2021/12/20 10:00:41;;;;;;;11.32;1.90;;;7.10;99.90;;;;;;5088097;28;20028;-78
2021/12/20 10:03:09;;;;;;;9.45;1.88;;;7.10;99.90;;;;;;5084115;28;20020;-75
2021/12/20 10:05:39;;;;;;;12.05;2.83;;;7.20;99.90;;;;;;5090689;28;20024;-72
2021/12/20 10:08:14;;;;;;;12.20;2.20;;;7.20;99.90;;;;;;5089727;28;20099;-71
2021/12/20 10:10:39;;;;;;;18.23;3.10;;;7.20;99.90;;;;;;5089549;28;20036;-72
2021/12/20 10:13:05;;;;;;;11.02;2.05;;;7.30;99.90;;;;;;5073599;28;20032;-73
2021/12/20 10:15:33;;;;;;;11.65;2.03;;;7.30;99.90;;;;;;5090974;28;20024;-72
2021/12/20 10:18:00;;;;;;;18.42;2.05;;;7.30;99.90;;;;;;5090933;28;20055;-71
2021/12/20 10:20:35;;;;;;;12.48;2.17;;;7.30;99.90;;;;;;5088097;28;20032;-71
2021/12/20 10:23:15;;;;;;;11.55;1.75;;;7.30;99.90;;;;;;5093439;28;20072;-71
2021/12/20 10:25:42;;;;;;;12.15;2.40;;;7.30;99.90;;;;;;5095682;28;20069;-73
2021/12/20 10:28:16;;;;;;;10.23;2.25;;;7.30;99.90;;;;;;5095499;28;20024;-79
2021/12/20 10:30:49;;;;;;;8.20;1.95;;;7.30;99.90;;;;;;5096412;28;20036;-82
2021/12/20 10:33:23;;;;;;;8.98;2.33;;;7.30;99.90;;;;;;5093473;28;20077;-77
2021/12/20 10:35:52;;;;;;;22.02;2.83;;;7.30;99.90;;;;;;5096080;28;20016;-77
2021/12/20 10:38:18;;;;;;;16.02;3.10;;;7.40;99.90;;;;;;5085262;28;20028;-77
2021/12/20 10:40:53;;;;;;;13.68;2.13;;;7.30;99.90;;;;;;5077450;28;20103;-78
2021/12/20 10:43:22;;;;;;;14.93;2.17;;;7.40;99.90;;;;;;5079249;28;20020;-78
2021/12/20 10:45:50;;;;;;;8.60;2.25;;;7.40;99.90;;;;;;5091525;28;20024;-77
2021/12/20 10:48:15;;;;;;;14.32;1.83;;;7.40;99.90;;;;;;5084279;28;20040;-79
2021/12/20 10:50:44;;;;;;;10.05;2.30;;;7.50;99.90;;;;;;5095330;28;20023;-78
2021/12/20 10:53:13;;;;;;;7.00;1.65;;;7.50;99.90;;;;;;5092192;28;20054;-77
2021/12/20 10:55:43;;;;;;;11.43;1.60;;;7.60;99.90;;;;;;5083719;28;20089;-78
2021/12/20 10:58:29;;;;;;;5.43;0.90;;;7.60;99.90;;;;;;5084355;28;20016;-77
2021/12/20 11:01:04;;;;;;;5.72;1.08;;;7.60;99.90;;;;;;5086620;28;20032;-77
2021/12/20 11:03:37;;;;;;;6.13;1.15;;;8.00;99.90;;;;;;5084195;28;20023;-77
2021/12/20 11:11:33;;;;;;;7.78;1.35;;;7.90;99.90;;;;;;5079533;28;20467;-76
2021/12/20 11:14:00;;;;;;;11.80;1.63;;;8.00;99.90;;;;;;5095430;28;20507;-76
2021/12/20 11:16:32;;;;;;;6.55;2.03;;;8.00;99.90;;;;;;5096166;28;20024;-77
2021/12/20 11:19:06;;;;;;;13.15;1.70;;;8.00;99.90;;;;;;5074978;28;20094;-77
2021/12/20 11:21:33;;;;;;;7.90;1.60;;;8.00;99.90;;;;;;5096224;28;20024;-78
2021/12/20 11:24:03;;;;;;;11.23;2.25;;;8.00;99.90;;;;;;5088571;28;20032;-82
2021/12/20 11:26:29;;;;;;;16.92;2.90;;;8.00;99.90;;;;;;5091753;28;20028;-80
2021/12/20 11:28:56;;;;;;;8.80;1.50;;;7.90;99.90;;;;;;5097282;28;20024;-80
2021/12/20 11:31:22;;;;;;;10.15;1.90;;;7.90;99.90;;;;;;5097996;28;20503;-80
2021/12/20 11:33:47;;;;;;;10.02;2.97;;;7.90;99.90;;;;;;5094956;28;20036;-81
2021/12/20 11:36:13;;;;;;;10.15;2.05;;;7.90;99.90;;;;;;5097385;28;20028;-78
2021/12/20 11:38:40;;;;;;;6.82;1.92;;;7.80;99.90;;;;;;5081259;28;20210;-79
2021/12/20 11:41:06;;;;;;;8.32;1.60;;;7.80;99.90;;;;;;5074756;28;20031;-82
2021/12/20 11:43:32;;;;;;;9.63;2.25;;;7.90;99.90;;;;;;5076180;28;20028;-79
2021/12/20 11:45:59;;;;;;;13.77;2.17;;;7.90;99.90;;;;;;5075550;28;20025;-80
2021/12/20 11:48:27;;;;;;;11.23;1.98;;;7.90;99.90;;;;;;5082016;28;20063;-79
2021/12/20 11:50:57;;;;;;;10.88;1.95;;;7.90;99.90;;;;;;5095229;28;20371;-78
2021/12/20 11:53:23;;;;;;;9.75;1.45;;;7.90;99.90;;;;;;5087967;28;20359;-79
2021/12/20 11:55:53;;;;;;;7.30;1.92;;;7.90;99.90;;;;;;5078996;28;20103;-78
2021/12/20 11:58:30;;;;;;;8.85;2.20;;;7.90;99.90;;;;;;5083209;28;20048;-81
2021/12/20 12:01:13;;;;;;;9.23;2.33;;;7.90;99.90;;;;;;5080847;28;20047;-78
2021/12/20 12:03:39;;;;;;;12.32;1.48;;;7.80;99.90;;;;;;5081427;28;20024;-77
2021/12/20 12:06:13;;;;;;;6.70;1.63;;;7.70;99.90;;;;;;5083840;28;20057;-76
2021/12/20 12:08:55;;;;;;;10.02;1.48;;;7.60;99.90;;;;;;5077865;28;20017;-82
2021/12/20 12:11:24;;;;;;;9.13;1.67;;;7.60;99.90;;;;;;5077543;28;20028;-77
2021/12/20 12:14:03;;;;;;;9.27;1.55;;;7.50;99.90;;;;;;5086444;28;20460;-76
2021/12/20 12:17:00;;;;;;;7.22;2.15;;;7.40;99.90;;;;;;5081805;28;20103;-77
2021/12/20 12:19:45;;;;;;;9.13;1.38;;;7.40;99.90;;;;;;5089086;28;20028;-76
2021/12/20 12:22:26;;;;;;;9.93;1.38;;;7.40;99.90;;;;;;5092994;28;20027;-77
2021/12/20 12:24:54;;;;;;;9.07;1.27;;;7.30;99.90;;;;;;5092563;28;20024;-78
2021/12/20 12:27:34;;;;;;;6.32;1.05;;;7.30;99.90;;;;;;5084920;28;20138;-75
2021/12/20 12:30:14;;;;;;;11.40;3.15;;;7.30;99.90;;;;;;5073380;28;20047;-77
2021/12/20 12:32:49;;;;;;;6.85;0.98;;;7.30;99.90;;;;;;5072134;28;20112;-77
2021/12/20 12:35:39;;;;;;;4.93;0.82;;;7.30;99.90;;;;;;5072014;28;20036;-76
2021/12/20 12:38:15;;;;;;;6.10;0.95;;;7.40;99.90;;;;;;5071823;28;20025;-76
2021/12/20 12:40:42;;;;;;;3.58;1.02;;;7.40;99.90;;;;;;5072727;28;20548;-78
2021/12/20 12:43:09;;;;;;;4.63;1.00;;;7.40;99.90;;;;;;5071697;28;20025;-78
2021/12/20 12:46:09;;;;;;;8.00;0.70;;;7.40;99.90;;;;;;5072701;28;20025;-76
2021/12/20 12:48:50;;;;;;;4.45;0.88;;;7.50;99.90;;;;;;5074089;28;20484;-76
2021/12/20 12:51:19;;;;;;;5.82;1.00;;;7.50;99.90;;;;;;5071226;28;20103;-76
2021/12/20 12:53:55;;;;;;;7.30;1.38;;;7.50;99.90;;;;;;5075079;28;20043;-76
2021/12/20 12:56:24;;;;;;;3.60;0.98;;;7.50;99.90;;;;;;5073834;28;20050;-77
2021/12/20 12:59:19;;;;;;;6.88;1.05;;;7.50;99.90;;;;;;5071559;28;20491;-78
2021/12/20 13:01:56;;;;;;;10.15;1.20;;;7.50;99.90;;;;;;5075480;28;20035;-77
2021/12/20 13:04:47;;;;;;;3.20;1.05;;;7.60;99.90;;;;;;5092499;28;20104;-76
2021/12/20 13:07:35;;;;;;;3.67;1.23;;;7.60;99.90;;;;;;5093361;28;20112;-77
2021/12/20 13:10:06;;;;;;;3.03;1.40;;;7.70;99.90;;;;;;5093755;28;20029;-78
2021/12/20 13:12:55;;;;;;;;;;;7.70;99.90;;;;;;5092880;28;20020;-76
2021/12/20 13:15:32;;;;;;;5.90;1.23;;;7.70;99.90;;;;;;5092787;28;19996;-75
2021/12/20 13:18:07;;;;;;;3.72;1.40;;;7.70;99.90;;;;;;5092428;28;20077;-76